Time;durP1;ratioP1;P1;durP2;ratioP2;P2;SDS_P1;SDS_P2;PMS_P1;PMS_P2;Temp;Humidity;BMP_temperature;BMP_pressure;BME280_temperature;BME280_humidity;BME280_pressure;Samples;Min_cycle;Max_cycle;Signal;HPM_P1;HPM_P2
2022/04/29 00:00:41;;;;;;;;;;;;;;;11.19;58.02;102392.13;4977223;28;20410;-76
2022/04/29 00:03:08;;;;;;;;;;;;;;;11.05;58.37;102384.31;4980959;28;19958;-80
2022/04/29 00:05:37;;;;;;;;;;;;;;;10.94;59.49;102388.56;4981198;28;20528;-76
2022/04/29 00:08:05;;;;;;;;;;;;;;;11.03;58.92;102386.00;4983040;28;20072;-76
2022/04/29 00:10:31;;;;;;;;;;;;;;;11.14;59.07;102384.31;4984369;28;19928;-80
2022/04/29 00:12:57;;;;;;;;;;;;;;;11.16;59.14;102379.97;4985649;28;19926;-80
2022/04/29 00:15:22;;;;;;;;;;;;;;;11.12;59.02;102380.00;4984149;28;19926;-77
2022/04/29 00:17:47;;;;;;;;;;;;;;;11.06;59.18;102367.81;4986710;28;19930;-76
2022/04/29 00:20:14;;;;;;;;;;;;;;;11.06;59.65;102378.22;4981855;28;19921;-76
2022/04/29 00:22:39;;;;;;;;;;;;;;;11.08;59.75;102373.91;4980831;28;19944;-76
2022/04/29 00:25:05;;;;;;;;;;;;;;;10.84;60.20;102385.09;4983751;28;20486;-76
2022/04/29 00:27:31;;;;;;;;;;;;;;;11.03;59.92;102378.22;4978901;28;19926;-76
2022/04/29 00:29:56;;;;;;;;;;;;;;;11.08;59.71;102375.63;4977444;28;19934;-76
2022/04/29 00:32:22;;;;;;;;;;;;;;;11.09;59.79;102377.38;4984753;28;20000;-76
2022/04/29 00:34:48;;;;;;;;;;;;;;;11.02;59.02;102376.50;4987282;28;20007;-76
2022/04/29 00:37:14;;;;;;;;;;;;;;;10.98;59.78;102382.53;4983366;28;20013;-76
2022/04/29 00:39:39;;;;;;;;;;;;;;;11.03;60.12;102376.47;4977881;28;20190;-76
2022/04/29 00:42:15;;;;;;;;;;;;;;;11.01;60.15;102369.53;4987169;28;20065;-76
2022/04/29 00:44:41;;;;;;;;;;;;;;;10.94;60.44;102370.38;4982397;28;20012;-80
2022/04/29 00:47:08;;;;;;;;;;;;;;;11.02;60.54;102364.38;4978340;28;20005;-80
2022/04/29 00:49:34;;;;;;;;;;;;;;;11.09;60.43;102359.19;4986787;28;19966;-80
2022/04/29 00:51:59;;;;;;;;;;;;;;;11.10;60.10;102351.34;4980120;28;20616;-80
2022/04/29 00:54:26;;;;;;;;;;;;;;;10.99;59.87;102350.47;4980385;28;19988;-80
2022/04/29 00:56:52;;;;;;;;;;;;;;;10.97;60.32;102349.59;4981651;28;19926;-76
2022/04/29 00:59:27;;;;;;;;;;;;;;;10.94;60.06;102347.84;4984220;28;20313;-76
2022/04/29 01:01:54;;;;;;;;;;;;;;;11.00;60.08;102339.19;4977561;28;20000;-76
2022/04/29 01:04:25;;;;;;;;;;;;;;;11.03;59.99;102332.28;4986202;28;20527;-80
2022/04/29 01:06:50;;;;;;;;;;;;;;;11.04;59.88;102335.75;4978802;28;19957;-80
2022/04/29 01:09:15;;;;;;;;;;;;;;;11.00;59.80;102334.88;4978953;28;19968;-80
2022/04/29 01:11:41;;;;;;;;;;;;;;;11.05;59.63;102339.22;4983571;28;19925;-76
2022/04/29 01:14:06;;;;;;;;;;;;;;;10.95;59.61;102333.13;4979326;28;19926;-76
2022/04/29 01:16:32;;;;;;;;;;;;;;;11.00;59.06;102337.47;4980317;28;20630;-76
2022/04/29 01:18:58;;;;;;;;;;;;;;;10.94;59.02;102331.38;4978874;28;20028;-72
2022/04/29 01:21:25;;;;;;;;;;;;;;;10.89;59.42;102335.72;4976296;28;19927;-80
2022/04/29 01:23:50;;;;;;;;;;;;;;;10.84;59.45;102330.50;4983172;28;19922;-76
2022/04/29 01:26:16;;;;;;;;;;;;;;;10.78;59.40;102327.03;4985421;28;20571;-76
2022/04/29 01:28:47;;;;;;;;;;;;;;;10.70;59.98;102332.19;4998590;28;19952;-76
2022/04/29 01:31:14;;;;;;;;;;;;;;;10.81;59.21;102333.09;4991490;28;19926;-76
2022/04/29 01:33:44;;;;;;;;;;;;;;;10.83;58.63;102327.88;4980034;28;19976;-76
2022/04/29 01:36:09;;;;;;;;;;;;;;;10.75;59.43;102325.28;4985971;28;20300;-76
2022/04/29 01:38:35;;;;;;;;;;;;;;;10.78;59.23;102327.03;4984264;28;19922;-72
2022/04/29 01:41:01;;;;;;;;;;;;;;;10.67;58.66;102331.31;4982628;28;19981;-72
2022/04/29 01:43:26;;;;;;;;;;;;;;;10.64;59.69;102337.34;4983586;28;19925;-72
2022/04/29 01:45:51;;;;;;;;;;;;;;;10.89;58.75;102326.19;4984317;28;19968;-80
2022/04/29 01:48:17;;;;;;;;;;;;;;;10.84;58.56;102322.72;4983439;28;20348;-80
2022/04/29 01:50:43;;;;;;;;;;;;;;;10.91;58.98;102321.84;4979556;28;19925;-76
2022/04/29 01:53:08;;;;;;;;;;;;;;;10.82;59.19;102321.81;4985442;28;20469;-76
2022/04/29 01:55:33;;;;;;;;;;;;;;;10.85;58.89;102320.97;4977443;28;19922;-80
2022/04/29 01:57:58;;;;;;;;;;;;;;;10.82;59.50;102315.78;4981546;28;19926;-79
2022/04/29 02:00:24;;;;;;;;;;;;;;;10.85;58.55;102320.97;4978609;28;19972;-80
2022/04/29 02:02:49;;;;;;;;;;;;;;;10.70;59.14;102319.19;4978836;28;20555;-80
2022/04/29 02:05:14;;;;;;;;;;;;;;;10.75;59.29;102321.81;4981324;28;20314;-79
2022/04/29 02:07:43;;;;;;;;;;;;;;;10.77;59.01;102312.28;4979591;28;19945;-79
2022/04/29 02:10:09;;;;;;;;;;;;;;;10.76;59.42;102313.16;4983816;28;20000;-80
2022/04/29 02:12:35;;;;;;;;;;;;;;;10.68;59.32;102312.25;4981061;28;20008;-76
2022/04/29 02:15:01;;;;;;;;;;;;;;;10.73;59.37;102323.53;4982949;28;19989;-76
2022/04/29 02:17:26;;;;;;;;;;;;;;;10.64;58.76;102313.13;4985349;28;19926;-72
2022/04/29 02:19:51;;;;;;;;;;;;;;;10.63;59.39;102314.84;4985104;28;20287;-72
2022/04/29 02:22:17;;;;;;;;;;;;;;;10.74;59.54;102313.13;4983014;28;20391;-76
2022/04/29 02:24:42;;;;;;;;;;;;;;;10.66;59.42;102308.78;4983405;28;19928;-76
2022/04/29 02:27:08;;;;;;;;;;;;;;;10.57;58.83;102295.75;4979555;28;19933;-76
2022/04/29 02:29:34;;;;;;;;;;;;;;;10.51;60.46;102309.59;4980741;28;19930;-76
2022/04/29 02:31:59;;;;;;;;;;;;;;;10.58;60.37;102293.19;4981376;28;19918;-76
2022/04/29 02:34:25;;;;;;;;;;;;;;;10.67;59.94;102295.78;4983463;28;19941;-76
2022/04/29 02:36:50;;;;;;;;;;;;;;;10.72;60.21;102291.47;4981479;28;20482;-76
2022/04/29 02:39:15;;;;;;;;;;;;;;;10.59;59.85;102294.91;4981557;28;19923;-76
2022/04/29 02:41:41;;;;;;;;;;;;;;;10.66;59.98;102294.06;4985816;28;19929;-72
2022/04/29 02:44:06;;;;;;;;;;;;;;;10.70;60.08;102288.00;4985159;28;19933;-72
2022/04/29 02:46:32;;;;;;;;;;;;;;;10.67;60.15;102282.78;4985396;28;20403;-72
2022/04/29 02:48:57;;;;;;;;;;;;;;;10.62;59.90;102281.91;4979390;28;20371;-76
2022/04/29 02:51:23;;;;;;;;;;;;;;;10.69;59.34;102283.69;4980143;28;19922;-72
2022/04/29 02:53:48;;;;;;;;;;;;;;;10.69;59.49;102278.47;4980686;28;19929;-71
2022/04/29 02:56:13;;;;;;;;;;;;;;;10.60;59.65;102286.25;4977432;28;19930;-72
2022/04/29 02:58:39;;;;;;;;;;;;;;;10.68;59.78;102287.13;4980426;28;20391;-72
2022/04/29 03:01:04;;;;;;;;;;;;;;;10.64;59.75;102280.19;4981405;28;19930;-72
2022/04/29 03:03:29;;;;;;;;;;;;;;;10.67;59.15;102287.16;4981093;28;19925;-72
2022/04/29 03:05:55;;;;;;;;;;;;;;;10.52;58.78;102287.09;4983259;28;19937;-80
2022/04/29 03:08:20;;;;;;;;;;;;;;;10.43;60.04;102283.56;4980100;28;19964;-76
2022/04/29 03:10:47;;;;;;;;;;;;;;;10.55;60.03;102294.91;4981211;28;19952;-75
2022/04/29 03:13:12;;;;;;;;;;;;;;;10.65;59.76;102288.84;4983436;28;20396;-75
2022/04/29 03:15:38;;;;;;;;;;;;;;;10.46;59.08;102291.38;4997078;28;19936;-72
2022/04/29 03:18:18;;;;;;;;;;;;;;;10.50;59.70;102284.47;4995729;28;19926;-72
2022/04/29 03:20:44;;;;;;;;;;;;;;;10.47;59.71;102285.34;5002453;28;19937;-75
2022/04/29 03:23:10;;;;;;;;;;;;;;;10.58;59.84;102284.50;4999503;28;19975;-75
2022/04/29 03:25:38;;;;;;;;;;;;;;;10.51;60.30;102291.41;5002311;28;19956;-72
2022/04/29 03:28:06;;;;;;;;;;;;;;;10.59;60.06;102275.84;4998025;28;19929;-72
2022/04/29 03:30:31;;;;;;;;;;;;;;;10.53;60.43;102281.88;4998996;28;19945;-72
2022/04/29 03:32:58;;;;;;;;;;;;;;;10.48;59.72;102283.59;5003409;28;19940;-72
2022/04/29 03:35:24;;;;;;;;;;;;;;;10.60;60.35;102280.19;5000330;28;19932;-76
2022/04/29 03:37:52;;;;;;;;;;;;;;;10.53;60.03;102278.41;5006183;28;19925;-71
2022/04/29 03:40:20;;;;;;;;;;;;;;;10.55;60.61;102279.31;5007464;28;19995;-72
2022/04/29 03:42:46;;;;;;;;;;;;;;;10.53;60.52;102275.81;5004572;28;19973;-75
2022/04/29 03:45:11;;;;;;;;;;;;;;;10.57;59.74;102275.84;5016943;28;19929;-72
2022/04/29 03:47:37;;;;;;;;;;;;;;;10.54;59.65;102277.56;5006829;28;19936;-72
2022/04/29 03:50:02;;;;;;;;;;;;;;;10.50;59.96;102281.00;5002523;28;19921;-76
2022/04/29 03:52:28;;;;;;;;;;;;;;;10.57;60.12;102272.38;5001952;28;20327;-76
2022/04/29 03:54:55;;;;;;;;;;;;;;;10.55;59.81;102271.50;5000451;28;20045;-76
2022/04/29 03:57:21;;;;;;;;;;;;;;;10.44;60.19;102268.84;5006761;28;19976;-76
2022/04/29 03:59:48;;;;;;;;;;;;;;;10.43;60.56;102270.59;5005239;28;19925;-76
2022/04/29 04:02:13;;;;;;;;;;;;;;;10.41;60.76;102272.31;5004017;28;19926;-76
2022/04/29 04:04:39;;;;;;;;;;;;;;;10.43;60.07;102272.34;5003803;28;19921;-72
2022/04/29 04:07:04;;;;;;;;;;;;;;;10.32;61.02;102282.66;5002596;28;19937;-72
2022/04/29 04:09:29;;;;;;;;;;;;;;;10.19;61.46;102283.50;5001571;28;19921;-72
2022/04/29 04:11:55;;;;;;;;;;;;;;;10.29;60.69;102286.97;5002138;28;19952;-76
2022/04/29 04:14:20;;;;;;;;;;;;;;;10.08;61.18;102282.56;4999679;28;19980;-79
2022/04/29 04:16:46;;;;;;;;;;;;;;;10.25;61.04;102282.66;5008021;28;19933;-80
2022/04/29 04:19:11;;;;;;;;;;;;;;;10.11;61.91;102289.50;4997674;28;19922;-72
2022/04/29 04:21:36;;;;;;;;;;;;;;;10.35;60.95;102282.69;5004775;28;19948;-72
2022/04/29 04:24:02;;;;;;;;;;;;;;;10.36;60.37;102289.63;5004075;28;19925;-72
2022/04/29 04:26:27;;;;;;;;;;;;;;;10.25;60.88;102285.25;5006656;28;19922;-72
2022/04/29 04:28:53;;;;;;;;;;;;;;;10.21;61.85;102286.97;5003345;28;19917;-72
2022/04/29 04:31:21;;;;;;;;;;;;;;;10.43;60.71;102283.56;5009178;28;19971;-80
2022/04/29 04:33:46;;;;;;;;;;;;;;;10.43;60.82;102293.13;5009144;28;19971;-75
2022/04/29 04:36:12;;;;;;;;;;;;;;;10.35;60.87;102292.19;5002788;28;19929;-76
2022/04/29 04:38:37;;;;;;;;;;;;;;;10.21;61.69;102289.56;5000328;28;20634;-76
2022/04/29 04:41:03;;;;;;;;;;;;;;;10.34;61.18;102291.34;5000126;28;20090;-72
2022/04/29 04:43:28;;;;;;;;;;;;;;;10.21;61.09;102294.75;5002020;28;20287;-72
2022/04/29 04:45:54;;;;;;;;;;;;;;;10.33;60.85;102302.59;5006932;28;19984;-76
2022/04/29 04:48:19;;;;;;;;;;;;;;;10.20;61.20;102300.78;5002618;28;19926;-76
2022/04/29 04:50:45;;;;;;;;;;;;;;;10.29;61.88;102310.34;5008789;28;19929;-76
2022/04/29 04:53:10;;;;;;;;;;;;;;;10.41;61.28;102307.81;4999905;28;19921;-76
2022/04/29 04:55:36;;;;;;;;;;;;;;;10.47;61.17;102300.91;5008539;28;19921;-72
2022/04/29 04:58:01;;;;;;;;;;;;;;;10.45;61.47;102292.25;5008257;28;19921;-76
2022/04/29 05:00:27;;;;;;;;;;;;;;;10.36;61.82;102305.22;5008811;28;20307;-72
2022/04/29 05:02:52;;;;;;;;;;;;;;;10.52;60.93;102294.88;5004678;28;19952;-72
2022/04/29 05:05:17;;;;;;;;;;;;;;;10.41;61.45;102302.63;5007077;28;19921;-72
2022/04/29 05:07:43;;;;;;;;;;;;;;;10.46;61.30;102300.94;5006609;28;20036;-72
2022/04/29 05:10:09;;;;;;;;;;;;;;;10.57;61.99;102299.22;5009121;28;19917;-72
2022/04/29 05:12:41;;;;;;;;;;;;;;;10.46;61.74;102306.97;5006903;28;19926;-72
2022/04/29 05:15:07;;;;;;;;;;;;;;;10.37;61.93;102308.69;5008750;28;19929;-76
2022/04/29 05:17:34;;;;;;;;;;;;;;;10.46;62.14;102317.34;4999319;28;19921;-79
2022/04/29 05:20:00;;;;;;;;;;;;;;;10.51;61.71;102307.00;5007157;28;19914;-80
2022/04/29 05:22:27;;;;;;;;;;;;;;;10.59;61.25;102297.50;5010437;28;19932;-80
2022/04/29 05:24:53;;;;;;;;;;;;;;;10.68;61.46;102292.31;5005382;28;20036;-75
2022/04/29 05:27:18;;;;;;;;;;;;;;;10.63;61.67;102303.56;4999786;28;20025;-77
2022/04/29 05:29:43;;;;;;;;;;;;;;;10.66;61.97;102294.06;4998882;28;19925;-76
2022/04/29 05:32:09;;;;;;;;;;;;;;;10.63;61.84;102296.66;5005665;28;19932;-80
2022/04/29 05:34:34;;;;;;;;;;;;;;;10.72;61.54;102295.81;4999194;28;20020;-80
2022/04/29 05:37:00;;;;;;;;;;;;;;;10.64;61.54;102290.56;5003221;28;19933;-76
2022/04/29 05:42:15;;;;;;;;;;;;;;;10.84;61.25;102291.50;5005396;28;19972;-80
2022/04/29 05:44:41;;;;;;;;;;;;;;;10.85;61.09;102293.22;5002206;28;19921;-76
2022/04/29 05:47:07;;;;;;;;;;;;;;;10.70;60.67;102288.00;5001457;28;19948;-76
2022/04/29 05:49:32;;;;;;;;;;;;;;;10.80;60.70;102287.16;5001481;28;19949;-76
2022/04/29 05:52:02;;;;;;;;;;;;;;;10.70;60.98;102290.59;5016323;28;19929;-72
2022/04/29 05:54:27;;;;;;;;;;;;;;;10.75;61.07;102285.41;5004688;28;19925;-80
2022/04/29 05:56:53;;;;;;;;;;;;;;;10.94;60.58;102284.56;5004278;28;20383;-77
2022/04/29 05:59:20;;;;;;;;;;;;;;;10.92;60.49;102288.91;5005904;28;19924;-77
2022/04/29 06:01:46;;;;;;;;;;;;;;;10.87;60.50;102282.84;4995960;28;19926;-80
2022/04/29 06:04:12;;;;;;;;;;;;;;;10.89;60.52;102286.31;4997613;28;19928;-80
2022/04/29 06:06:37;;;;;;;;;;;;;;;10.87;60.32;102285.44;5001707;28;19957;-80
2022/04/29 06:09:03;;;;;;;;;;;;;;;10.91;59.66;102282.84;5003591;28;19968;-72
2022/04/29 06:11:28;;;;;;;;;;;;;;;10.93;60.07;102288.06;5002311;28;19922;-72
2022/04/29 06:13:53;;;;;;;;;;;;;;;10.97;60.79;102282.84;4999986;28;19925;-80
2022/04/29 06:16:19;;;;;;;;;;;;;;;10.91;59.79;102289.78;5002719;28;20470;-80
2022/04/29 06:18:45;;;;;;;;;;;;;;;10.91;60.74;102284.56;5000616;28;19930;-77
2022/04/29 06:21:10;;;;;;;;;;;;;;;10.99;59.97;102291.53;4999824;28;19930;-77
2022/04/29 06:23:36;;;;;;;;;;;;;;;10.83;60.06;102287.16;5003368;28;20294;-77
2022/04/29 06:26:01;;;;;;;;;;;;;;;10.99;59.77;102288.06;5003389;28;19926;-80
2022/04/29 06:28:27;;;;;;;;;;;;;;;10.79;60.36;102295.81;5002360;28;19929;-80
2022/04/29 06:30:52;;;;;;;;;;;;;;;11.02;60.13;102298.47;5001437;28;20349;-72
2022/04/29 06:33:17;;;;;;;;;;;;;;;10.94;60.51;102301.03;5004008;28;19932;-72
2022/04/29 06:35:43;;;;;;;;;;;;;;;11.13;60.29;102307.16;5005052;28;19925;-73
2022/04/29 06:38:09;;;;;;;;;;;;;;;11.09;60.30;102305.41;4997154;28;19930;-76
2022/04/29 06:40:34;;;;;;;;;;;;;;;11.18;59.89;102304.53;4999455;28;19930;-76
2022/04/29 06:42:59;;;;;;;;;;;;;;;11.11;59.10;102301.09;5001776;28;19933;-80
2022/04/29 06:45:25;;;;;;;;;;;;;;;11.12;58.96;102304.56;5000323;28;19930;-80
2022/04/29 06:47:50;;;;;;;;;;;;;;;11.20;59.86;102313.25;4998211;28;19922;-79
2022/04/29 06:50:15;;;;;;;;;;;;;;;11.07;59.54;102309.75;4999941;28;20417;-80
2022/04/29 06:52:41;;;;;;;;;;;;;;;11.10;59.58;102314.94;4998340;28;19922;-80
2022/04/29 06:55:08;;;;;;;;;;;;;;;11.13;59.70;102309.75;5001307;28;19935;-80
2022/04/29 06:57:34;;;;;;;;;;;;;;;11.27;59.67;102310.63;5001943;28;20027;-80
2022/04/29 06:59:59;;;;;;;;;;;;;;;11.32;59.70;102311.56;5001311;28;20378;-80
2022/04/29 07:02:25;;;;;;;;;;;;;;;11.33;59.77;102307.19;5006825;28;19941;-76
2022/04/29 07:04:52;;;;;;;;;;;;;;;11.36;59.50;102310.66;4995334;28;19925;-76
2022/04/29 07:07:18;;;;;;;;;;;;;;;11.36;59.57;102305.47;5000813;28;19926;-76
2022/04/29 07:09:43;;;;;;;;;;;;;;;11.47;59.46;102305.47;4995097;28;19926;-76
2022/04/29 07:12:09;;;;;;;;;;;;;;;11.40;59.79;102311.53;4998666;28;20465;-76
2022/04/29 07:14:34;;;;;;;;;;;;;;;11.46;60.61;102309.81;5001263;28;19930;-76
2022/04/29 07:17:00;;;;;;;;;;;;;;;11.44;60.46;102314.13;4997787;28;19921;-76
2022/04/29 07:19:25;;;;;;;;;;;;;;;11.52;59.68;102309.81;5002132;28;20341;-76
2022/04/29 07:21:50;;;;;;;;;;;;;;;11.45;60.66;102315.00;5002739;28;20378;-72
2022/04/29 07:24:20;;;;;;;;;;;;;;;11.49;60.32;102314.16;5000333;28;20090;-72
2022/04/29 07:26:45;;;;;;;;;;;;;;;11.39;59.50;102318.47;5001953;28;19922;-72
2022/04/29 07:29:10;;;;;;;;;;;;;;;11.59;59.01;102313.28;4997932;28;19967;-76
2022/04/29 07:31:36;;;;;;;;;;;;;;;11.68;58.80;102307.19;5001900;28;20044;-76
2022/04/29 07:34:01;;;;;;;;;;;;;;;11.68;57.91;102304.59;5002740;28;20016;-76
2022/04/29 07:41:54;;;;;;;;;;;;;;;11.60;59.14;102303.72;4995194;28;20012;-80
2022/04/29 07:44:19;;;;;;;;;;;;;;;11.68;58.22;102299.41;5003384;28;20004;-79
2022/04/29 07:46:46;;;;;;;;;;;;;;;11.61;58.20;102300.25;4999402;28;20532;-80
2022/04/29 07:49:12;;;;;;;;;;;;;;;11.61;57.49;102303.72;5002262;28;19940;-80
2022/04/29 07:51:40;;;;;;;;;;;;;;;11.55;57.71;102298.53;5002791;28;19929;-77
2022/04/29 07:54:06;;;;;;;;;;;;;;;11.62;59.35;102307.22;5001769;28;19928;-76
2022/04/29 07:56:32;;;;;;;;;;;;;;;11.68;58.81;102300.22;4998166;28;19913;-77
2022/04/29 07:58:58;;;;;;;;;;;;;;;11.57;58.23;102299.38;5001398;28;20382;-76
2022/04/29 08:01:23;;;;;;;;;;;;;;;11.67;59.58;102302.84;5009517;28;19972;-76
2022/04/29 08:03:49;;;;;;;;;;;;;;;11.65;59.97;102304.59;5002578;28;19926;-76
2022/04/29 08:06:14;;;;;;;;;;;;;;;11.59;59.51;102307.22;4999672;28;19957;-77
2022/04/29 08:08:39;;;;;;;;;;;;;;;11.73;59.13;102306.31;4998960;28;19921;-76
2022/04/29 08:11:05;;;;;;;;;;;;;;;11.89;58.63;102307.19;4994443;28;19926;-76
2022/04/29 08:13:31;;;;;;;;;;;;;;;11.84;57.28;102308.91;4999640;28;19922;-76
2022/04/29 08:15:58;;;;;;;;;;;;;;;11.73;58.45;102305.44;5000217;28;19948;-79
2022/04/29 08:18:24;;;;;;;;;;;;;;;11.82;57.84;102295.91;4997894;28;19929;-76
2022/04/29 08:20:50;;;;;;;;;;;;;;;11.83;58.70;102289.78;5001088;28;19922;-76
2022/04/29 08:23:15;;;;;;;;;;;;;;;11.94;59.39;102292.41;5001942;28;20524;-77
2022/04/29 08:25:40;;;;;;;;;;;;;;;11.96;59.25;102282.84;5009102;28;20381;-72
2022/04/29 08:28:06;;;;;;;;;;;;;;;12.04;60.67;102287.16;5007315;28;20003;-72
2022/04/29 08:30:31;;;;;;;;;;;;;;;12.03;58.74;102288.03;5010627;28;19922;-72
2022/04/29 08:32:57;;;;;;;;;;;;;;;12.07;58.26;102289.75;5012634;28;19933;-73
2022/04/29 08:35:24;;;;;;;;;;;;;;;12.22;57.42;102288.81;5007793;28;19920;-72
2022/04/29 08:37:49;;;;;;;;;;;;;;;12.15;57.14;102289.72;4999970;28;19929;-73
2022/04/29 08:40:16;;;;;;;;;;;;;;;12.07;57.47;102286.25;5004446;28;20061;-76
2022/04/29 08:42:41;;;;;;;;;;;;;;;12.07;58.11;102294.94;5008620;28;19926;-76
2022/04/29 08:45:12;;;;;;;;;;;;;;;11.99;58.00;102286.31;5003523;28;19945;-78
2022/04/29 08:47:39;;;;;;;;;;;;;;;12.05;58.18;102285.41;5005105;28;19971;-77
2022/04/29 08:50:05;;;;;;;;;;;;;;;12.00;58.24;102289.78;5005459;28;20616;-77
2022/04/29 08:52:31;;;;;;;;;;;;;;;12.22;57.67;102286.22;5006850;28;20016;-77
2022/04/29 09:00:26;;;;;;;;;;;;;;;12.22;57.86;102288.81;5012777;28;20405;-77
2022/04/29 09:02:52;;;;;;;;;;;;;;;12.12;57.63;102284.53;5010079;28;19925;-76
2022/04/29 09:05:17;;;;;;;;;;;;;;;12.20;58.32;102287.97;5010343;28;19921;-77
2022/04/29 09:08:01;;;;;;;;;;;;;;;12.33;57.71;102287.06;5005667;28;19928;-78
2022/04/29 09:10:28;;;;;;;;;;;;;;;12.37;56.89;102283.56;5006312;28;19937;-73
2022/04/29 09:12:54;;;;;;;;;;;;;;;12.45;56.94;102278.31;5002432;28;19953;-72
2022/04/29 09:15:20;;;;;;;;;;;;;;;12.48;57.09;102286.13;5007180;28;19933;-72
2022/04/29 09:17:46;;;;;;;;;;;;;;;12.56;56.65;102289.59;5001843;28;20027;-73
2022/04/29 09:20:13;;;;;;;;;;;;;;;12.59;56.81;102281.75;5001588;28;19929;-72
2022/04/29 09:22:39;;;;;;;;;;;;;;;12.72;57.58;102285.16;5002733;28;19965;-72
2022/04/29 09:25:05;;;;;;;;;;;;;;;12.71;57.47;102284.28;5003125;28;19925;-72
2022/04/29 09:27:30;;;;;;;;;;;;;;;12.73;56.32;102277.31;5000771;28;19926;-72
2022/04/29 09:30:01;;;;;;;;;;;;;;;12.78;56.50;102279.91;5005471;28;20334;-72
2022/04/29 09:32:46;;;;;;;;;;;;;;;12.73;55.42;102282.53;5008825;28;19925;-72
2022/04/29 09:35:11;;;;;;;;;;;;;;;12.84;56.68;102274.66;5005603;28;20008;-72
2022/04/29 09:39:26;;;;;;;;;;;;;;;12.93;55.83;102277.19;5005956;28;20093;-73
2022/04/29 09:40:22;;;;;;;;;;;;;;;12.93;55.46;102265.00;5003205;28;20040;-72
2022/04/29 09:42:47;;;;;;;;;;;;;;;12.92;55.14;102267.66;5006443;28;20008;-72
2022/04/29 09:45:24;;;;;;;;;;;;;;;12.91;54.12;102260.69;5009876;28;19947;-81
2022/04/29 09:47:53;;;;;;;;;;;;;;;12.92;54.41;102272.88;5006910;28;20016;-79
2022/04/29 09:50:19;;;;;;;;;;;;;;;12.99;55.68;102275.41;5008044;28;20383;-80
2022/04/29 09:52:45;;;;;;;;;;;;;;;12.98;54.83;102275.44;5009424;28;19936;-72
2022/04/29 09:55:14;;;;;;;;;;;;;;;12.95;54.19;102260.69;5008569;28;19933;-80
2022/04/29 09:58:09;;;;;;;;;;;;;;;13.05;56.12;102277.09;5003308;28;19922;-77
2022/04/29 10:00:34;;;;;;;;;;;;;;;13.02;55.56;102264.94;5003018;28;19926;-76
2022/04/29 10:03:03;;;;;;;;;;;;;;;13.01;55.77;102263.25;5006762;28;19935;-76
2022/04/29 10:05:29;;;;;;;;;;;;;;;13.03;56.66;102260.59;5005667;28;20024;-76
2022/04/29 10:07:55;;;;;;;;;;;;;;;13.01;56.51;102259.75;5007860;28;19925;-76
2022/04/29 10:10:20;;;;;;;;;;;;;;;13.03;57.32;102252.78;5008407;28;19922;-77
2022/04/29 10:12:47;;;;;;;;;;;;;;;13.06;57.47;102244.94;5004385;28;19948;-77
2022/04/29 10:15:16;;;;;;;;;;;;;;;13.12;57.26;102255.31;5005965;28;19991;-78
2022/04/29 10:23:13;;;;;;;;;;;;;;;13.23;57.96;102240.44;5008306;28;19928;-79
2022/04/29 10:25:46;;;;;;;;;;;;;;;13.20;57.71;102246.53;5004464;28;19983;-73
2022/04/29 10:28:16;;;;;;;;;;;;;;;13.26;58.59;102244.75;5006154;28;20008;-81
2022/04/29 10:30:42;;;;;;;;;;;;;;;13.27;59.32;102241.28;5006987;28;20004;-81
2022/04/29 10:33:16;;;;;;;;;;;;;;;13.18;58.58;102240.50;5010583;28;20654;-80
2022/04/29 10:35:53;;;;;;;;;;;;;;;13.36;60.01;102246.41;5003769;28;19928;-78
2022/04/29 10:38:22;;;;;;;;;;;;;;;13.39;59.92;102235.94;5001415;28;19921;-78
2022/04/29 10:41:07;;;;;;;;;;;;;;;13.42;59.03;102238.53;5005026;28;19925;-77
2022/04/29 10:43:42;;;;;;;;;;;;;;;13.46;58.85;102235.03;4999386;28;19926;-77
2022/04/29 10:46:08;;;;;;;;;;;;;;;13.50;58.25;102229.75;4996226;28;19929;-79
2022/04/29 10:48:33;;;;;;;;;;;;;;;13.66;57.70;102235.69;5001897;28;19921;-78
2022/04/29 10:51:15;;;;;;;;;;;;;;;13.73;57.48;102234.75;5000494;28;19925;-78
2022/04/29 10:53:41;;;;;;;;;;;;;;;13.77;56.82;102226.00;4995039;28;19968;-78
2022/04/29 10:56:25;;;;;;;;;;;;;;;13.76;57.52;102232.09;4999222;28;19918;-78
2022/04/29 10:58:51;;;;;;;;;;;;;;;13.79;56.19;102231.25;5001299;28;19929;-78
2022/04/29 11:01:27;;;;;;;;;;;;;;;13.87;55.86;102225.03;4999814;28;19925;-78
2022/04/29 11:03:53;;;;;;;;;;;;;;;13.77;55.14;102226.00;5007458;28;19921;-73
2022/04/29 11:06:18;;;;;;;;;;;;;;;13.77;53.94;102218.19;5000859;28;19975;-73
2022/04/29 11:08:44;;;;;;;;;;;;;;;13.84;54.71;102216.38;4992984;28;19929;-77
2022/04/29 11:11:10;;;;;;;;;;;;;;;13.81;53.63;102219.88;5000841;28;20431;-77
2022/04/29 11:13:37;;;;;;;;;;;;;;;13.77;52.98;102219.03;5001027;28;20035;-77
2022/04/29 11:16:09;;;;;;;;;;;;;;;13.91;53.31;102216.25;5001977;28;20456;-77
2022/04/29 11:18:34;;;;;;;;;;;;;;;13.98;53.12;102209.22;5000924;28;19975;-77
2022/04/29 11:24:40;;;;;;;;;;;;;;;14.05;52.49;102213.50;4997284;28;20007;-77
2022/04/29 11:26:41;;;;;;;;;;;;;;;14.05;52.17;102197.81;5004634;28;20353;-73
2022/04/29 11:29:09;;;;;;;;;;;;;;;14.07;53.65;102196.06;5000142;28;20012;-73
2022/04/29 11:31:35;;;;;;;;;;;;;;;14.08;51.71;102189.94;4998551;28;20459;-76
2022/04/29 11:34:07;;;;;;;;;;;;;;;14.08;51.98;102200.41;5004475;28;20075;-73
2022/04/29 11:36:32;;;;;;;;;;;;;;;14.08;51.95;102195.19;5002997;28;19929;-73
2022/04/29 11:38:58;;;;;;;;;;;;;;;14.14;52.68;102197.72;4999723;28;20294;-78
2022/04/29 11:41:27;;;;;;;;;;;;;;;14.13;51.58;102195.97;5006473;28;20400;-78
2022/04/29 11:43:53;;;;;;;;;;;;;;;14.07;52.16;102186.47;5003852;28;20494;-79
2022/04/29 11:46:19;;;;;;;;;;;;;;;14.15;52.54;102191.59;4999875;28;20044;-77
2022/04/29 11:48:51;;;;;;;;;;;;;;;14.11;52.21;102182.06;5008165;28;20004;-76
2022/04/29 11:51:17;;;;;;;;;;;;;;;14.24;54.11;102191.47;5001009;28;19922;-76
2022/04/29 11:53:59;;;;;;;;;;;;;;;14.21;52.83;102183.66;4999930;28;19922;-79
2022/04/29 11:56:32;;;;;;;;;;;;;;;14.23;52.71;102185.34;5000849;28;19917;-78
2022/04/29 11:58:57;;;;;;;;;;;;;;;14.17;52.50;102184.59;5001893;28;20450;-78
2022/04/29 12:01:25;;;;;;;;;;;;;;;14.18;52.41;102179.34;5010143;28;19961;-79
2022/04/29 12:03:50;;;;;;;;;;;;;;;14.15;52.21;102176.78;5010347;28;19936;-78
2022/04/29 12:06:16;;;;;;;;;;;;;;;14.17;52.09;102168.94;5004232;28;20319;-78
2022/04/29 12:08:42;;;;;;;;;;;;;;;14.22;52.71;102159.25;5001078;28;19987;-73
2022/04/29 12:11:08;;;;;;;;;;;;;;;14.24;53.28;102158.34;5006635;28;19945;-73
2022/04/29 12:13:36;;;;;;;;;;;;;;;14.28;52.33;102160.03;5007237;28;19922;-78
2022/04/29 12:16:01;;;;;;;;;;;;;;;14.30;52.34;102160.00;5009318;28;19925;-77
2022/04/29 12:18:37;;;;;;;;;;;;;;;14.29;52.42;102153.91;5006294;28;19994;-78
2022/04/29 12:21:02;;;;;;;;;;;;;;;14.29;52.34;102143.47;5003110;28;19922;-77
2022/04/29 12:23:31;;;;;;;;;;;;;;;14.36;54.05;102152.09;5007025;28;20000;-77
2022/04/29 12:25:59;;;;;;;;;;;;;;;14.33;53.28;102144.28;5006399;28;19922;-77
2022/04/29 12:28:26;;;;;;;;;;;;;;;14.37;52.42;102139.88;5008165;28;19932;-73
2022/04/29 12:36:55;;;;;;;;;;;;;;;14.51;52.41;102130.94;5005965;28;20011;-78
2022/04/29 12:39:40;;;;;;;;;;;;;;;14.57;52.63;102135.19;5004503;28;20173;-78
2022/04/29 12:42:07;;;;;;;;;;;;;;;14.58;52.11;102135.19;5008843;28;19926;-78
2022/04/29 12:45:04;;;;;;;;;;;;;;;14.49;51.96;102132.72;4997406;28;20000;-78
2022/04/29 12:47:39;;;;;;;;;;;;;;;14.55;52.72;102129.13;5003664;28;19965;-77
2022/04/29 12:50:24;;;;;;;;;;;;;;;14.56;52.42;102134.34;5007650;28;19977;-77
2022/04/29 12:52:54;;;;;;;;;;;;;;;14.58;51.60;102135.19;5010524;28;20391;-77
2022/04/29 12:55:20;;;;;;;;;;;;;;;14.55;50.60;102135.25;5004314;28;19925;-77
2022/04/29 12:57:46;;;;;;;;;;;;;;;14.55;51.43;102127.41;4990870;28;19922;-77
2022/04/29 13:00:20;;;;;;;;;;;;;;;14.70;51.45;102111.47;4986354;28;19926;-77
2022/04/29 13:02:46;;;;;;;;;;;;;;;14.69;50.44;102120.19;4984536;28;20422;-77